sensor_id;sensor_type;location;lat;lon;timestamp;P1;durP1;ratioP1;P2;durP2;ratioP2
16354;SDS011;8287;51.644;8.494;2024-02-21T00:00:34;18.02;;;7.93;;
16354;SDS011;8287;51.644;8.494;2024-02-21T00:03:03;16.77;;;7.00;;
16354;SDS011;8287;51.644;8.494;2024-02-21T00:05:31;13.95;;;7.82;;
16354;SDS011;8287;51.644;8.494;2024-02-21T00:07:58;14.82;;;8.93;;
16354;SDS011;8287;51.644;8.494;2024-02-21T00:10:25;22.00;;;9.02;;
16354;SDS011;8287;51.644;8.494;2024-02-21T00:12:51;19.33;;;8.48;;
16354;SDS011;8287;51.644;8.494;2024-02-21T00:15:18;19.02;;;8.45;;
16354;SDS011;8287;51.644;8.494;2024-02-21T00:17:45;15.95;;;8.73;;
16354;SDS011;8287;51.644;8.494;2024-02-21T00:20:12;15.98;;;7.90;;
16354;SDS011;8287;51.644;8.494;2024-02-21T00:22:40;17.70;;;8.15;;
16354;SDS011;8287;51.644;8.494;2024-02-21T00:25:06;15.15;;;8.13;;
16354;SDS011;8287;51.644;8.494;2024-02-21T00:27:34;20.40;;;8.68;;
16354;SDS011;8287;51.644;8.494;2024-02-21T00:30:00;15.82;;;8.70;;
16354;SDS011;8287;51.644;8.494;2024-02-21T00:32:27;19.17;;;9.48;;
16354;SDS011;8287;51.644;8.494;2024-02-21T00:34:53;14.65;;;8.48;;
16354;SDS011;8287;51.644;8.494;2024-02-21T00:37:20;15.63;;;8.63;;
16354;SDS011;8287;51.644;8.494;2024-02-21T00:39:47;18.58;;;9.00;;
16354;SDS011;8287;51.644;8.494;2024-02-21T00:42:14;20.83;;;9.55;;
16354;SDS011;8287;51.644;8.494;2024-02-21T00:44:40;26.30;;;10.65;;
16354;SDS011;8287;51.644;8.494;2024-02-21T00:47:07;17.27;;;10.70;;
16354;SDS011;8287;51.644;8.494;2024-02-21T00:49:33;20.50;;;10.60;;
16354;SDS011;8287;51.644;8.494;2024-02-21T00:52:00;16.08;;;9.68;;
16354;SDS011;8287;51.644;8.494;2024-02-21T00:54:27;20.63;;;10.38;;
16354;SDS011;8287;51.644;8.494;2024-02-21T00:56:54;17.95;;;10.55;;
16354;SDS011;8287;51.644;8.494;2024-02-21T00:59:21;17.33;;;9.75;;
16354;SDS011;8287;51.644;8.494;2024-02-21T01:01:47;22.58;;;11.57;;
16354;SDS011;8287;51.644;8.494;2024-02-21T01:04:14;18.40;;;10.48;;
16354;SDS011;8287;51.644;8.494;2024-02-21T01:06:40;24.98;;;11.40;;
16354;SDS011;8287;51.644;8.494;2024-02-21T01:09:09;20.80;;;11.95;;
16354;SDS011;8287;51.644;8.494;2024-02-21T01:11:35;22.15;;;11.48;;
16354;SDS011;8287;51.644;8.494;2024-02-21T01:14:03;18.42;;;10.80;;
16354;SDS011;8287;51.644;8.494;2024-02-21T01:16:30;20.80;;;10.82;;
16354;SDS011;8287;51.644;8.494;2024-02-21T01:18:56;16.23;;;10.20;;
16354;SDS011;8287;51.644;8.494;2024-02-21T01:21:23;21.55;;;10.52;;
16354;SDS011;8287;51.644;8.494;2024-02-21T01:23:50;24.73;;;10.35;;
16354;SDS011;8287;51.644;8.494;2024-02-21T01:26:16;18.67;;;10.00;;
16354;SDS011;8287;51.644;8.494;2024-02-21T01:28:43;21.73;;;10.25;;
16354;SDS011;8287;51.644;8.494;2024-02-21T01:31:11;15.20;;;8.38;;
16354;SDS011;8287;51.644;8.494;2024-02-21T01:33:38;15.90;;;9.82;;
16354;SDS011;8287;51.644;8.494;2024-02-21T01:36:04;14.10;;;8.65;;
16354;SDS011;8287;51.644;8.494;2024-02-21T01:38:32;19.65;;;8.73;;
16354;SDS011;8287;51.644;8.494;2024-02-21T01:40:58;16.95;;;8.73;;
16354;SDS011;8287;51.644;8.494;2024-02-21T01:43:25;16.35;;;9.45;;
16354;SDS011;8287;51.644;8.494;2024-02-21T01:45:52;15.43;;;7.93;;
16354;SDS011;8287;51.644;8.494;2024-02-21T01:48:22;19.77;;;9.25;;
16354;SDS011;8287;51.644;8.494;2024-02-21T01:50:50;22.00;;;9.25;;
16354;SDS011;8287;51.644;8.494;2024-02-21T01:53:18;13.73;;;7.82;;
16354;SDS011;8287;51.644;8.494;2024-02-21T01:55:47;16.23;;;8.02;;
16354;SDS011;8287;51.644;8.494;2024-02-21T01:58:14;17.52;;;8.82;;
16354;SDS011;8287;51.644;8.494;2024-02-21T02:00:42;14.75;;;8.63;;
16354;SDS011;8287;51.644;8.494;2024-02-21T02:03:10;16.20;;;8.52;;
16354;SDS011;8287;51.644;8.494;2024-02-21T02:05:43;17.85;;;8.70;;
16354;SDS011;8287;51.644;8.494;2024-02-21T02:08:11;21.30;;;9.15;;
16354;SDS011;8287;51.644;8.494;2024-02-21T02:10:38;16.52;;;8.45;;
16354;SDS011;8287;51.644;8.494;2024-02-21T02:13:06;16.65;;;8.65;;
16354;SDS011;8287;51.644;8.494;2024-02-21T02:15:39;15.95;;;8.00;;
16354;SDS011;8287;51.644;8.494;2024-02-21T02:18:06;15.60;;;8.40;;
16354;SDS011;8287;51.644;8.494;2024-02-21T02:20:32;16.02;;;8.70;;
16354;SDS011;8287;51.644;8.494;2024-02-21T02:23:00;22.63;;;8.88;;
16354;SDS011;8287;51.644;8.494;2024-02-21T02:25:34;14.57;;;7.38;;
16354;SDS011;8287;51.644;8.494;2024-02-21T02:28:01;15.60;;;6.88;;
16354;SDS011;8287;51.644;8.494;2024-02-21T02:30:28;19.15;;;9.18;;
16354;SDS011;8287;51.644;8.494;2024-02-21T02:32:55;16.15;;;7.55;;
16354;SDS011;8287;51.644;8.494;2024-02-21T02:35:21;10.95;;;8.05;;
16354;SDS011;8287;51.644;8.494;2024-02-21T02:37:48;15.73;;;8.45;;
16354;SDS011;8287;51.644;8.494;2024-02-21T02:40:15;15.48;;;8.02;;
16354;SDS011;8287;51.644;8.494;2024-02-21T02:42:43;13.48;;;7.75;;
16354;SDS011;8287;51.644;8.494;2024-02-21T02:45:10;16.85;;;7.55;;
16354;SDS011;8287;51.644;8.494;2024-02-21T02:47:36;15.35;;;7.90;;
16354;SDS011;8287;51.644;8.494;2024-02-21T02:50:03;18.80;;;8.07;;
16354;SDS011;8287;51.644;8.494;2024-02-21T02:52:31;16.33;;;8.32;;
16354;SDS011;8287;51.644;8.494;2024-02-21T02:54:57;15.85;;;7.90;;
16354;SDS011;8287;51.644;8.494;2024-02-21T02:57:24;20.02;;;7.72;;
16354;SDS011;8287;51.644;8.494;2024-02-21T02:59:52;16.50;;;8.80;;
16354;SDS011;8287;51.644;8.494;2024-02-21T03:02:18;18.45;;;9.15;;
16354;SDS011;8287;51.644;8.494;2024-02-21T03:04:45;16.85;;;7.70;;
16354;SDS011;8287;51.644;8.494;2024-02-21T03:07:11;15.98;;;8.80;;
16354;SDS011;8287;51.644;8.494;2024-02-21T03:09:40;19.35;;;7.57;;
16354;SDS011;8287;51.644;8.494;2024-02-21T03:12:08;18.40;;;7.75;;
16354;SDS011;8287;51.644;8.494;2024-02-21T03:14:35;9.70;;;6.75;;
16354;SDS011;8287;51.644;8.494;2024-02-21T03:17:03;12.57;;;7.20;;
16354;SDS011;8287;51.644;8.494;2024-02-21T03:19:29;13.57;;;7.35;;
16354;SDS011;8287;51.644;8.494;2024-02-21T03:21:56;13.98;;;7.35;;
16354;SDS011;8287;51.644;8.494;2024-02-21T03:24:23;16.83;;;7.45;;
16354;SDS011;8287;51.644;8.494;2024-02-21T03:26:50;13.15;;;6.75;;
16354;SDS011;8287;51.644;8.494;2024-02-21T03:29:16;13.27;;;7.07;;
16354;SDS011;8287;51.644;8.494;2024-02-21T03:31:43;9.13;;;6.68;;
16354;SDS011;8287;51.644;8.494;2024-02-21T03:34:11;16.73;;;6.85;;
16354;SDS011;8287;51.644;8.494;2024-02-21T03:36:37;9.52;;;6.65;;
16354;SDS011;8287;51.644;8.494;2024-02-21T03:39:04;11.18;;;6.32;;
16354;SDS011;8287;51.644;8.494;2024-02-21T03:41:30;16.40;;;6.70;;
16354;SDS011;8287;51.644;8.494;2024-02-21T03:43:57;10.48;;;7.05;;
16354;SDS011;8287;51.644;8.494;2024-02-21T03:46:23;12.48;;;5.88;;
16354;SDS011;8287;51.644;8.494;2024-02-21T03:48:50;11.77;;;6.78;;
16354;SDS011;8287;51.644;8.494;2024-02-21T03:51:18;12.32;;;7.28;;
16354;SDS011;8287;51.644;8.494;2024-02-21T03:53:44;14.98;;;6.50;;
16354;SDS011;8287;51.644;8.494;2024-02-21T03:56:11;10.65;;;5.95;;
16354;SDS011;8287;51.644;8.494;2024-02-21T03:58:37;9.35;;;6.05;;
16354;SDS011;8287;51.644;8.494;2024-02-21T04:01:04;17.33;;;7.22;;
16354;SDS011;8287;51.644;8.494;2024-02-21T04:03:31;12.95;;;6.90;;
16354;SDS011;8287;51.644;8.494;2024-02-21T04:05:57;18.30;;;6.65;;
16354;SDS011;8287;51.644;8.494;2024-02-21T04:08:25;14.10;;;5.78;;
16354;SDS011;8287;51.644;8.494;2024-02-21T04:10:52;15.90;;;6.55;;
16354;SDS011;8287;51.644;8.494;2024-02-21T04:13:18;11.80;;;7.15;;
16354;SDS011;8287;51.644;8.494;2024-02-21T04:15:45;9.80;;;6.38;;
16354;SDS011;8287;51.644;8.494;2024-02-21T04:18:11;8.88;;;5.90;;
16354;SDS011;8287;51.644;8.494;2024-02-21T04:20:39;12.07;;;5.88;;
16354;SDS011;8287;51.644;8.494;2024-02-21T04:23:06;14.43;;;6.80;;
16354;SDS011;8287;51.644;8.494;2024-02-21T04:25:34;9.77;;;6.00;;
16354;SDS011;8287;51.644;8.494;2024-02-21T04:28:02;14.48;;;6.40;;
16354;SDS011;8287;51.644;8.494;2024-02-21T04:30:29;8.20;;;5.85;;
16354;SDS011;8287;51.644;8.494;2024-02-21T04:32:55;14.02;;;6.55;;
16354;SDS011;8287;51.644;8.494;2024-02-21T04:35:22;8.48;;;6.22;;
16354;SDS011;8287;51.644;8.494;2024-02-21T04:37:48;15.68;;;7.25;;
16354;SDS011;8287;51.644;8.494;2024-02-21T04:40:15;10.85;;;5.95;;
16354;SDS011;8287;51.644;8.494;2024-02-21T04:42:44;9.25;;;5.80;;
16354;SDS011;8287;51.644;8.494;2024-02-21T04:45:10;13.82;;;6.72;;
16354;SDS011;8287;51.644;8.494;2024-02-21T04:47:37;10.05;;;6.03;;
16354;SDS011;8287;51.644;8.494;2024-02-21T04:50:03;11.65;;;6.32;;
16354;SDS011;8287;51.644;8.494;2024-02-21T04:52:31;13.40;;;7.00;;
16354;SDS011;8287;51.644;8.494;2024-02-21T04:54:57;12.50;;;6.95;;
16354;SDS011;8287;51.644;8.494;2024-02-21T04:57:24;15.35;;;6.47;;
16354;SDS011;8287;51.644;8.494;2024-02-21T04:59:51;16.40;;;6.70;;
16354;SDS011;8287;51.644;8.494;2024-02-21T05:02:18;13.75;;;7.15;;
16354;SDS011;8287;51.644;8.494;2024-02-21T05:04:47;11.45;;;6.43;;
16354;SDS011;8287;51.644;8.494;2024-02-21T05:07:14;14.70;;;7.20;;
16354;SDS011;8287;51.644;8.494;2024-02-21T05:09:41;10.73;;;6.60;;
16354;SDS011;8287;51.644;8.494;2024-02-21T05:12:08;14.02;;;7.00;;
16354;SDS011;8287;51.644;8.494;2024-02-21T05:14:35;13.60;;;6.70;;
16354;SDS011;8287;51.644;8.494;2024-02-21T05:17:02;10.48;;;6.25;;
16354;SDS011;8287;51.644;8.494;2024-02-21T05:19:29;15.85;;;6.90;;
16354;SDS011;8287;51.644;8.494;2024-02-21T05:21:56;12.23;;;6.25;;
16354;SDS011;8287;51.644;8.494;2024-02-21T05:24:22;14.50;;;6.40;;
16354;SDS011;8287;51.644;8.494;2024-02-21T05:26:49;15.60;;;6.80;;
16354;SDS011;8287;51.644;8.494;2024-02-21T05:29:15;9.40;;;6.00;;
16354;SDS011;8287;51.644;8.494;2024-02-21T05:31:43;11.10;;;6.15;;
16354;SDS011;8287;51.644;8.494;2024-02-21T05:34:23;8.55;;;5.63;;
16354;SDS011;8287;51.644;8.494;2024-02-21T05:36:50;9.35;;;6.43;;
16354;SDS011;8287;51.644;8.494;2024-02-21T05:39:17;8.93;;;6.22;;
16354;SDS011;8287;51.644;8.494;2024-02-21T05:41:44;13.23;;;6.90;;
16354;SDS011;8287;51.644;8.494;2024-02-21T05:44:10;13.60;;;7.00;;
16354;SDS011;8287;51.644;8.494;2024-02-21T05:46:38;12.57;;;6.82;;
16354;SDS011;8287;51.644;8.494;2024-02-21T05:49:04;13.00;;;6.75;;
16354;SDS011;8287;51.644;8.494;2024-02-21T05:51:33;11.00;;;6.85;;
16354;SDS011;8287;51.644;8.494;2024-02-21T05:54:00;12.18;;;6.45;;
16354;SDS011;8287;51.644;8.494;2024-02-21T05:56:27;15.63;;;6.45;;
16354;SDS011;8287;51.644;8.494;2024-02-21T05:58:54;12.75;;;6.47;;
16354;SDS011;8287;51.644;8.494;2024-02-21T06:01:21;17.23;;;8.13;;
16354;SDS011;8287;51.644;8.494;2024-02-21T06:03:47;15.98;;;7.65;;
16354;SDS011;8287;51.644;8.494;2024-02-21T06:06:14;16.40;;;7.38;;
16354;SDS011;8287;51.644;8.494;2024-02-21T06:08:42;10.30;;;6.47;;
16354;SDS011;8287;51.644;8.494;2024-02-21T06:11:08;12.38;;;6.72;;
16354;SDS011;8287;51.644;8.494;2024-02-21T06:13:37;13.02;;;6.88;;
16354;SDS011;8287;51.644;8.494;2024-02-21T06:16:05;11.50;;;6.63;;
16354;SDS011;8287;51.644;8.494;2024-02-21T06:18:32;14.25;;;7.18;;
16354;SDS011;8287;51.644;8.494;2024-02-21T06:21:01;15.73;;;7.25;;
16354;SDS011;8287;51.644;8.494;2024-02-21T06:23:27;12.18;;;6.78;;
16354;SDS011;8287;51.644;8.494;2024-02-21T06:25:55;11.85;;;6.45;;
16354;SDS011;8287;51.644;8.494;2024-02-21T06:28:22;17.50;;;7.78;;
16354;SDS011;8287;51.644;8.494;2024-02-21T06:30:48;12.27;;;7.82;;
16354;SDS011;8287;51.644;8.494;2024-02-21T06:33:15;11.25;;;7.18;;
16354;SDS011;8287;51.644;8.494;2024-02-21T06:35:42;12.77;;;6.93;;
16354;SDS011;8287;51.644;8.494;2024-02-21T06:38:11;13.93;;;7.05;;
16354;SDS011;8287;51.644;8.494;2024-02-21T06:40:37;8.80;;;5.55;;
16354;SDS011;8287;51.644;8.494;2024-02-21T06:43:06;12.10;;;6.80;;
16354;SDS011;8287;51.644;8.494;2024-02-21T06:45:33;11.15;;;6.10;;
16354;SDS011;8287;51.644;8.494;2024-02-21T06:47:59;8.75;;;6.25;;
16354;SDS011;8287;51.644;8.494;2024-02-21T06:50:26;11.93;;;6.13;;
16354;SDS011;8287;51.644;8.494;2024-02-21T06:52:52;10.15;;;5.15;;
16354;SDS011;8287;51.644;8.494;2024-02-21T06:55:19;10.88;;;6.47;;
16354;SDS011;8287;51.644;8.494;2024-02-21T06:57:45;8.65;;;5.45;;
16354;SDS011;8287;51.644;8.494;2024-02-21T07:00:15;11.95;;;6.60;;
16354;SDS011;8287;51.644;8.494;2024-02-21T07:02:42;11.02;;;5.55;;
16354;SDS011;8287;51.644;8.494;2024-02-21T07:05:09;14.60;;;7.05;;
16354;SDS011;8287;51.644;8.494;2024-02-21T07:07:36;10.32;;;5.45;;
16354;SDS011;8287;51.644;8.494;2024-02-21T07:10:02;13.95;;;5.82;;
16354;SDS011;8287;51.644;8.494;2024-02-21T07:12:29;11.57;;;5.82;;
16354;SDS011;8287;51.644;8.494;2024-02-21T07:14:56;12.98;;;5.97;;
16354;SDS011;8287;51.644;8.494;2024-02-21T07:17:24;6.32;;;4.55;;
16354;SDS011;8287;51.644;8.494;2024-02-21T07:19:50;11.60;;;5.13;;
16354;SDS011;8287;51.644;8.494;2024-02-21T07:22:17;13.10;;;6.10;;
16354;SDS011;8287;51.644;8.494;2024-02-21T07:24:43;11.63;;;5.20;;
16354;SDS011;8287;51.644;8.494;2024-02-21T07:27:10;10.73;;;6.00;;
16354;SDS011;8287;51.644;8.494;2024-02-21T07:29:36;9.98;;;5.47;;
16354;SDS011;8287;51.644;8.494;2024-02-21T07:32:03;9.20;;;4.88;;
16354;SDS011;8287;51.644;8.494;2024-02-21T07:34:31;8.40;;;5.63;;
16354;SDS011;8287;51.644;8.494;2024-02-21T07:36:58;11.73;;;5.18;;
16354;SDS011;8287;51.644;8.494;2024-02-21T07:39:24;12.27;;;5.03;;
16354;SDS011;8287;51.644;8.494;2024-02-21T07:41:51;9.55;;;6.05;;
16354;SDS011;8287;51.644;8.494;2024-02-21T07:44:18;10.75;;;6.05;;
16354;SDS011;8287;51.644;8.494;2024-02-21T07:46:44;13.80;;;5.07;;
16354;SDS011;8287;51.644;8.494;2024-02-21T07:49:11;10.05;;;5.13;;
16354;SDS011;8287;51.644;8.494;2024-02-21T07:51:39;8.48;;;4.97;;
16354;SDS011;8287;51.644;8.494;2024-02-21T07:54:07;11.43;;;5.80;;
16354;SDS011;8287;51.644;8.494;2024-02-21T07:56:33;11.27;;;5.30;;
16354;SDS011;8287;51.644;8.494;2024-02-21T07:59:00;9.95;;;5.88;;
16354;SDS011;8287;51.644;8.494;2024-02-21T08:01:26;10.80;;;5.05;;
16354;SDS011;8287;51.644;8.494;2024-02-21T08:03:53;6.97;;;4.82;;
16354;SDS011;8287;51.644;8.494;2024-02-21T08:06:19;8.85;;;4.07;;
16354;SDS011;8287;51.644;8.494;2024-02-21T08:08:47;9.60;;;4.78;;
16354;SDS011;8287;51.644;8.494;2024-02-21T08:11:14;12.02;;;5.82;;
16354;SDS011;8287;51.644;8.494;2024-02-21T08:13:40;8.75;;;4.60;;
16354;SDS011;8287;51.644;8.494;2024-02-21T08:16:07;10.13;;;4.93;;
16354;SDS011;8287;51.644;8.494;2024-02-21T08:18:33;9.63;;;4.78;;
16354;SDS011;8287;51.644;8.494;2024-02-21T08:21:03;7.57;;;3.47;;
16354;SDS011;8287;51.644;8.494;2024-02-21T08:23:29;7.90;;;4.28;;
16354;SDS011;8287;51.644;8.494;2024-02-21T08:25:57;7.82;;;4.25;;
16354;SDS011;8287;51.644;8.494;2024-02-21T08:28:24;8.10;;;3.97;;
16354;SDS011;8287;51.644;8.494;2024-02-21T08:30:50;5.75;;;3.60;;
16354;SDS011;8287;51.644;8.494;2024-02-21T08:33:17;10.40;;;3.88;;
16354;SDS011;8287;51.644;8.494;2024-02-21T08:35:44;11.35;;;4.80;;
16354;SDS011;8287;51.644;8.494;2024-02-21T08:38:10;8.35;;;4.40;;
16354;SDS011;8287;51.644;8.494;2024-02-21T08:40:37;6.00;;;4.25;;
16354;SDS011;8287;51.644;8.494;2024-02-21T08:43:04;9.35;;;4.38;;
16354;SDS011;8287;51.644;8.494;2024-02-21T08:45:31;8.25;;;4.57;;
16354;SDS011;8287;51.644;8.494;2024-02-21T08:47:58;8.52;;;4.65;;
16354;SDS011;8287;51.644;8.494;2024-02-21T08:50:24;7.53;;;5.00;;
16354;SDS011;8287;51.644;8.494;2024-02-21T08:52:51;10.35;;;5.28;;
16354;SDS011;8287;51.644;8.494;2024-02-21T08:55:17;8.27;;;4.95;;
16354;SDS011;8287;51.644;8.494;2024-02-21T08:57:44;9.30;;;5.97;;
16354;SDS011;8287;51.644;8.494;2024-02-21T09:00:13;10.95;;;5.60;;
16354;SDS011;8287;51.644;8.494;2024-02-21T09:02:40;11.07;;;6.65;;
16354;SDS011;8287;51.644;8.494;2024-02-21T09:05:08;11.73;;;6.28;;
16354;SDS011;8287;51.644;8.494;2024-02-21T09:07:35;12.40;;;6.70;;
16354;SDS011;8287;51.644;8.494;2024-02-21T09:10:01;10.85;;;7.13;;
16354;SDS011;8287;51.644;8.494;2024-02-21T09:12:28;10.60;;;6.95;;
16354;SDS011;8287;51.644;8.494;2024-02-21T09:14:55;8.15;;;6.53;;
16354;SDS011;8287;51.644;8.494;2024-02-21T09:17:23;11.48;;;7.55;;
16354;SDS011;8287;51.644;8.494;2024-02-21T09:19:51;13.57;;;7.82;;
16354;SDS011;8287;51.644;8.494;2024-02-21T09:22:17;10.40;;;6.82;;
16354;SDS011;8287;51.644;8.494;2024-02-21T09:24:44;12.63;;;7.80;;
16354;SDS011;8287;51.644;8.494;2024-02-21T09:27:10;10.60;;;7.50;;
16354;SDS011;8287;51.644;8.494;2024-02-21T09:29:37;10.25;;;7.20;;
16354;SDS011;8287;51.644;8.494;2024-02-21T09:32:04;13.48;;;7.15;;
16354;SDS011;8287;51.644;8.494;2024-02-21T09:34:33;12.63;;;7.60;;
16354;SDS011;8287;51.644;8.494;2024-02-21T09:36:59;11.73;;;7.18;;
16354;SDS011;8287;51.644;8.494;2024-02-21T09:39:26;9.30;;;6.60;;
16354;SDS011;8287;51.644;8.494;2024-02-21T09:41:53;15.82;;;6.25;;
16354;SDS011;8287;51.644;8.494;2024-02-21T09:44:25;9.57;;;5.85;;
16354;SDS011;8287;51.644;8.494;2024-02-21T09:47:02;9.77;;;6.57;;
16354;SDS011;8287;51.644;8.494;2024-02-21T09:49:30;9.75;;;6.13;;
16354;SDS011;8287;51.644;8.494;2024-02-21T09:51:59;11.15;;;5.88;;
16354;SDS011;8287;51.644;8.494;2024-02-21T09:54:28;9.52;;;5.68;;
16354;SDS011;8287;51.644;8.494;2024-02-21T09:56:55;9.10;;;5.32;;
16354;SDS011;8287;51.644;8.494;2024-02-21T09:59:21;9.88;;;5.20;;
16354;SDS011;8287;51.644;8.494;2024-02-21T10:01:50;7.93;;;5.32;;
16354;SDS011;8287;51.644;8.494;2024-02-21T10:04:16;10.35;;;4.38;;
16354;SDS011;8287;51.644;8.494;2024-02-21T10:06:43;6.55;;;4.30;;
16354;SDS011;8287;51.644;8.494;2024-02-21T10:09:20;7.90;;;3.75;;
16354;SDS011;8287;51.644;8.494;2024-02-21T10:11:48;6.78;;;3.92;;
16354;SDS011;8287;51.644;8.494;2024-02-21T10:14:14;6.57;;;3.55;;
16354;SDS011;8287;51.644;8.494;2024-02-21T10:16:42;8.15;;;4.05;;
16354;SDS011;8287;51.644;8.494;2024-02-21T10:19:15;7.85;;;3.40;;
16354;SDS011;8287;51.644;8.494;2024-02-21T10:21:43;7.85;;;3.92;;
16354;SDS011;8287;51.644;8.494;2024-02-21T10:24:11;7.63;;;3.25;;
16354;SDS011;8287;51.644;8.494;2024-02-21T10:26:40;8.07;;;3.35;;
16354;SDS011;8287;51.644;8.494;2024-02-21T10:29:06;7.97;;;2.75;;
16354;SDS011;8287;51.644;8.494;2024-02-21T10:31:33;6.25;;;2.85;;
16354;SDS011;8287;51.644;8.494;2024-02-21T10:34:00;5.63;;;2.50;;
16354;SDS011;8287;51.644;8.494;2024-02-21T10:36:28;5.78;;;3.00;;
16354;SDS011;8287;51.644;8.494;2024-02-21T10:38:54;6.32;;;2.33;;
16354;SDS011;8287;51.644;8.494;2024-02-21T10:41:22;5.00;;;2.30;;
16354;SDS011;8287;51.644;8.494;2024-02-21T10:43:51;6.68;;;2.40;;
16354;SDS011;8287;51.644;8.494;2024-02-21T10:46:20;5.97;;;2.25;;
16354;SDS011;8287;51.644;8.494;2024-02-21T10:48:48;7.57;;;2.15;;
16354;SDS011;8287;51.644;8.494;2024-02-21T10:51:25;3.05;;;2.00;;
16354;SDS011;8287;51.644;8.494;2024-02-21T10:53:57;4.07;;;1.98;;
16354;SDS011;8287;51.644;8.494;2024-02-21T10:56:34;2.92;;;1.90;;
16354;SDS011;8287;51.644;8.494;2024-02-21T10:59:07;3.80;;;2.05;;
16354;SDS011;8287;51.644;8.494;2024-02-21T11:01:34;4.00;;;2.85;;
16354;SDS011;8287;51.644;8.494;2024-02-21T11:04:01;4.80;;;2.63;;
16354;SDS011;8287;51.644;8.494;2024-02-21T11:06:30;6.60;;;2.22;;
16354;SDS011;8287;51.644;8.494;2024-02-21T11:09:01;4.07;;;1.90;;
16354;SDS011;8287;51.644;8.494;2024-02-21T11:11:29;4.35;;;1.98;;
16354;SDS011;8287;51.644;8.494;2024-02-21T11:14:03;5.60;;;1.98;;
16354;SDS011;8287;51.644;8.494;2024-02-21T11:16:36;3.38;;;1.88;;
16354;SDS011;8287;51.644;8.494;2024-02-21T11:19:05;3.65;;;1.95;;
16354;SDS011;8287;51.644;8.494;2024-02-21T11:21:32;3.35;;;1.90;;
16354;SDS011;8287;51.644;8.494;2024-02-21T11:24:00;6.30;;;2.42;;
16354;SDS011;8287;51.644;8.494;2024-02-21T11:26:27;3.42;;;2.03;;
16354;SDS011;8287;51.644;8.494;2024-02-21T11:28:58;5.18;;;2.42;;
16354;SDS011;8287;51.644;8.494;2024-02-21T11:31:25;5.82;;;2.38;;
16354;SDS011;8287;51.644;8.494;2024-02-21T11:33:53;4.38;;;2.22;;
16354;SDS011;8287;51.644;8.494;2024-02-21T11:36:26;3.55;;;1.83;;
16354;SDS011;8287;51.644;8.494;2024-02-21T11:38:53;4.10;;;1.85;;
16354;SDS011;8287;51.644;8.494;2024-02-21T11:41:20;7.45;;;2.80;;
16354;SDS011;8287;51.644;8.494;2024-02-21T11:43:47;3.35;;;1.73;;
16354;SDS011;8287;51.644;8.494;2024-02-21T11:46:14;4.65;;;2.45;;
16354;SDS011;8287;51.644;8.494;2024-02-21T11:48:41;8.55;;;2.47;;
16354;SDS011;8287;51.644;8.494;2024-02-21T11:51:10;3.10;;;1.77;;
16354;SDS011;8287;51.644;8.494;2024-02-21T11:53:37;9.55;;;2.38;;
16354;SDS011;8287;51.644;8.494;2024-02-21T11:56:04;6.60;;;2.63;;
16354;SDS011;8287;51.644;8.494;2024-02-21T11:58:31;6.47;;;2.63;;
16354;SDS011;8287;51.644;8.494;2024-02-21T12:00:57;10.18;;;2.20;;
16354;SDS011;8287;51.644;8.494;2024-02-21T12:03:24;6.18;;;2.15;;
16354;SDS011;8287;51.644;8.494;2024-02-21T12:05:51;5.25;;;1.88;;
16354;SDS011;8287;51.644;8.494;2024-02-21T12:08:23;2.90;;;1.95;;
16354;SDS011;8287;51.644;8.494;2024-02-21T12:10:49;4.88;;;1.90;;
16354;SDS011;8287;51.644;8.494;2024-02-21T12:13:16;5.20;;;2.15;;
16354;SDS011;8287;51.644;8.494;2024-02-21T12:15:47;4.70;;;2.45;;
16354;SDS011;8287;51.644;8.494;2024-02-21T12:18:13;5.38;;;2.38;;
16354;SDS011;8287;51.644;8.494;2024-02-21T12:20:40;4.07;;;2.15;;
16354;SDS011;8287;51.644;8.494;2024-02-21T12:23:08;4.53;;;2.47;;
16354;SDS011;8287;51.644;8.494;2024-02-21T12:25:36;7.00;;;2.67;;
16354;SDS011;8287;51.644;8.494;2024-02-21T12:28:05;3.20;;;2.10;;
16354;SDS011;8287;51.644;8.494;2024-02-21T12:30:32;3.88;;;1.70;;
16354;SDS011;8287;51.644;8.494;2024-02-21T12:33:00;5.10;;;2.45;;
16354;SDS011;8287;51.644;8.494;2024-02-21T12:35:27;6.43;;;2.40;;
16354;SDS011;8287;51.644;8.494;2024-02-21T12:37:53;5.50;;;2.70;;
16354;SDS011;8287;51.644;8.494;2024-02-21T12:40:20;7.55;;;3.28;;
16354;SDS011;8287;51.644;8.494;2024-02-21T12:42:48;3.92;;;2.20;;
16354;SDS011;8287;51.644;8.494;2024-02-21T12:45:14;2.03;;;1.67;;
16354;SDS011;8287;51.644;8.494;2024-02-21T12:47:42;4.00;;;1.90;;
16354;SDS011;8287;51.644;8.494;2024-02-21T12:50:08;5.05;;;2.53;;
16354;SDS011;8287;51.644;8.494;2024-02-21T12:52:35;4.25;;;1.67;;
16354;SDS011;8287;51.644;8.494;2024-02-21T12:55:02;4.25;;;2.90;;
16354;SDS011;8287;51.644;8.494;2024-02-21T12:57:29;6.20;;;2.10;;
16354;SDS011;8287;51.644;8.494;2024-02-21T12:59:56;5.95;;;2.45;;
16354;SDS011;8287;51.644;8.494;2024-02-21T13:02:23;5.85;;;2.28;;
16354;SDS011;8287;51.644;8.494;2024-02-21T13:04:50;6.25;;;2.20;;
16354;SDS011;8287;51.644;8.494;2024-02-21T13:07:16;3.22;;;2.10;;
16354;SDS011;8287;51.644;8.494;2024-02-21T13:09:43;6.90;;;2.83;;
16354;SDS011;8287;51.644;8.494;2024-02-21T13:12:10;5.72;;;2.58;;
16354;SDS011;8287;51.644;8.494;2024-02-21T13:14:37;6.68;;;2.80;;
16354;SDS011;8287;51.644;8.494;2024-02-21T13:17:05;10.43;;;3.45;;
16354;SDS011;8287;51.644;8.494;2024-02-21T13:19:32;5.88;;;2.53;;
16354;SDS011;8287;51.644;8.494;2024-02-21T13:21:58;2.88;;;1.83;;
16354;SDS011;8287;51.644;8.494;2024-02-21T13:24:25;5.30;;;2.25;;
16354;SDS011;8287;51.644;8.494;2024-02-21T13:26:51;8.18;;;2.75;;
16354;SDS011;8287;51.644;8.494;2024-02-21T13:29:18;8.85;;;3.13;;
16354;SDS011;8287;51.644;8.494;2024-02-21T13:31:45;4.85;;;2.60;;
16354;SDS011;8287;51.644;8.494;2024-02-21T13:34:13;6.97;;;3.50;;
16354;SDS011;8287;51.644;8.494;2024-02-21T13:36:40;8.25;;;3.50;;
16354;SDS011;8287;51.644;8.494;2024-02-21T13:39:06;6.05;;;3.65;;
16354;SDS011;8287;51.644;8.494;2024-02-21T13:41:37;10.35;;;4.53;;
16354;SDS011;8287;51.644;8.494;2024-02-21T13:44:04;11.10;;;4.15;;
16354;SDS011;8287;51.644;8.494;2024-02-21T13:46:31;6.60;;;3.33;;
16354;SDS011;8287;51.644;8.494;2024-02-21T13:49:02;4.78;;;2.63;;
16354;SDS011;8287;51.644;8.494;2024-02-21T13:51:32;6.60;;;2.75;;
16354;SDS011;8287;51.644;8.494;2024-02-21T13:54:01;7.85;;;2.72;;
16354;SDS011;8287;51.644;8.494;2024-02-21T13:56:28;6.05;;;2.80;;
16354;SDS011;8287;51.644;8.494;2024-02-21T13:58:54;7.50;;;3.20;;
16354;SDS011;8287;51.644;8.494;2024-02-21T14:01:21;7.68;;;2.88;;
16354;SDS011;8287;51.644;8.494;2024-02-21T14:03:47;6.53;;;2.42;;
16354;SDS011;8287;51.644;8.494;2024-02-21T14:06:14;3.42;;;2.40;;
16354;SDS011;8287;51.644;8.494;2024-02-21T14:08:42;11.63;;;2.50;;
16354;SDS011;8287;51.644;8.494;2024-02-21T14:11:08;4.65;;;2.55;;
16354;SDS011;8287;51.644;8.494;2024-02-21T14:13:35;4.93;;;1.95;;
16354;SDS011;8287;51.644;8.494;2024-02-21T14:16:01;7.28;;;2.60;;
16354;SDS011;8287;51.644;8.494;2024-02-21T14:18:28;6.85;;;2.17;;
16354;SDS011;8287;51.644;8.494;2024-02-21T14:20:54;4.80;;;2.03;;
16354;SDS011;8287;51.644;8.494;2024-02-21T14:23:21;3.83;;;2.25;;
16354;SDS011;8287;51.644;8.494;2024-02-21T14:25:49;6.43;;;2.15;;
16354;SDS011;8287;51.644;8.494;2024-02-21T14:28:16;4.88;;;2.20;;
16354;SDS011;8287;51.644;8.494;2024-02-21T14:30:43;5.80;;;2.42;;
16354;SDS011;8287;51.644;8.494;2024-02-21T14:33:09;4.53;;;1.67;;
16354;SDS011;8287;51.644;8.494;2024-02-21T14:35:36;7.53;;;2.17;;
16354;SDS011;8287;51.644;8.494;2024-02-21T14:38:02;4.97;;;2.00;;
16354;SDS011;8287;51.644;8.494;2024-02-21T14:40:29;8.88;;;2.28;;
16354;SDS011;8287;51.644;8.494;2024-02-21T14:42:57;6.05;;;1.90;;
16354;SDS011;8287;51.644;8.494;2024-02-21T14:45:23;3.88;;;1.92;;
16354;SDS011;8287;51.644;8.494;2024-02-21T14:47:50;4.22;;;1.88;;
16354;SDS011;8287;51.644;8.494;2024-02-21T14:50:17;10.00;;;2.63;;
16354;SDS011;8287;51.644;8.494;2024-02-21T14:52:43;5.68;;;3.55;;